Terminal Aerodrome Forecast
Issued by NWS

Home | Current Version | Previous Version | Text Only | Print | Product List | Glossary On
Versions: 1 2 3 4 5 6 7 8 9 10 11 12 13 14 15 16 17 18 19
000
FTUS43 KIND 261723
TAFLAF
TAF
KLAF 261723Z 2618/2718 16012KT P6SM SCT080 BKN250
     FM262200 17010KT P6SM VCTS SCT040CB BKN080
      TEMPO 2623/2702 2SM TSRA BKN025 OVC040CB
     FM270200 18006KT 5SM BR VCTS BKN050CB
     FM270600 21004KT 2SM BR BKN020
     FM270800 35004KT 2SM BR BKN008=

USA.gov is the U.S. government's official web portal to all federal, state and local government web resources and services.